Impacts METAR Board
IDs:

KCVG - Cincinnati Intl, KY, US

Updated at: 1700 UTC 23 Jul 2018
Potential Impact None Slight Moderate High
Time 23/05Z 23/06Z 23/07Z 23/08Z 23/09Z 23/10Z 23/11Z 23/12Z 23/13Z 23/14Z 23/15Z 23/16Z 23/17Z
Temp68 66 66 66 65 65 65 66 67 71 74 75 74
Dewpt64 63 63 63 63 63 63 63 63 63 63 63 62
Altim29.83 29.81 29.82 29.83 29.85 29.84 29.86 29.87 29.88 29.88 29.88 29.89 29.90
VIS10 10 10 10 10 10 10 10 10 10 10 10 10
CIG-- 11 12 11 13 150 19 10 13 30 40 43 35
CoverSCTOVCOVCOVCOVCBKNOVCOVCOVCBKNBKNOVCBKN
FltCatVFRMVFRMVFRMVFRMVFRVFRMVFRMVFRMVFRMVFRVFRVFRVFR
WX--------------------------
WDir360360360340350360350101030350360330
WSpd7 7 7 9 9 7 8 7 9 10 11 9 8
WGst-- -- -- -- -- -- -- -- -- -- -- -- --
Raw hourly METARs
KCVG 230452Z 36007KT 10SM FEW016 SCT250 20/18 A2983 RMK AO2 SLP092 T02000178 402780200
KCVG 230552Z 36007KT 10SM OVC011 19/17 A2981 RMK AO2 SLP087 BINOVC T01890172 10261 20189 58005
KCVG 230652Z 36007KT 10SM OVC012 19/17 A2982 RMK AO2 SLP087 T01890172
KCVG 230752Z 34009KT 10SM OVC011 19/17 A2983 RMK AO2 SLP094 T01890172
KCVG 230852Z 35009KT 10SM FEW009 OVC013 18/17 A2985 RMK AO2 SLP098 T01830172 53010
KCVG 230952Z 36007KT 10SM FEW016 BKN150 18/17 A2984 RMK AO2 SLP096 T01830172
KCVG 231052Z 35008KT 10SM SCT008 OVC019 18/17 A2986 RMK AO2 SLP102 T01830172
KCVG 231152Z 01007KT 10SM BKN010 OVC024 19/17 A2987 RMK AO2 SLP105 70001 T01890172 10194 20183 53008
KCVG 231252Z 01009KT 10SM OVC013 19/17 A2988 RMK AO2 SLP109 T01940172
KCVG 231352Z 03010KT 10SM SCT015 BKN030 BKN160 22/17 A2988 RMK AO2 SLP110 T02170172
KCVG 231452Z 35011KT 10SM FEW022 BKN040 BKN120 23/17 A2988 RMK AO2 SLP108 T02330172 50000
KCVG 231552Z 36009KT 10SM FEW035 OVC043 24/17 A2989 RMK AO2 CIG 035 36R SLP113 BINOVC T02390172
KCVG 231652Z 33008KT 10SM SCT026 BKN035 BKN047 23/17 A2990 RMK AO2 SLP115 T02330167



Page loaded:  17:36 UTC  |   10:36 AM Pacific  |   11:36 AM Mountain  |   12:36 PM Central  |   01:36 PM Eastern

 

ADVISORIES

FORECASTS

FORECASTS

OBSERVATIONS

USER TOOLS

ABOUT US